createdAt,value
2023-01-29T00:03:45.742Z,6.65
2023-01-29T00:08:51.885Z,6.75
2023-01-29T00:13:54.573Z,6.88
2023-01-29T00:18:57.307Z,6.68
2023-01-29T00:24:00.422Z,7.35
2023-01-29T00:29:03.155Z,6.70
2023-01-29T00:34:06.324Z,7.25
2023-01-29T00:39:11.205Z,7.25
2023-01-29T00:44:32.575Z,7.35
2023-01-29T00:49:35.489Z,7.68
2023-01-29T00:54:38.401Z,7.40
2023-01-29T00:59:41.418Z,7.63
2023-01-29T01:04:44.196Z,8.35
2023-01-29T01:10:05.320Z,8.52
2023-01-29T01:15:08.228Z,8.73
2023-01-29T01:20:11.707Z,8.55
2023-01-29T01:25:16.218Z,9.45
2023-01-29T01:30:19.423Z,8.98
2023-01-29T01:35:22.191Z,9.13
2023-01-29T01:40:25.429Z,8.27
2023-01-29T01:45:33.431Z,9.35
2023-01-29T01:50:40.548Z,9.70
2023-01-29T01:55:49.195Z,10.70
2023-01-29T02:00:52.133Z,9.85
2023-01-29T02:06:15.648Z,10.55
2023-01-29T02:11:18.539Z,10.48
2023-01-29T02:16:22.139Z,10.70
2023-01-29T02:21:33.926Z,11.55
2023-01-29T02:26:55.336Z,10.83
2023-01-29T02:32:14.684Z,10.95
2023-01-29T02:37:17.587Z,11.38
2023-01-29T02:42:27.581Z,12.57
2023-01-29T02:47:40.395Z,11.25
2023-01-29T02:53:03.398Z,11.68
2023-01-29T02:58:15.562Z,11.48
2023-01-29T03:03:20.871Z,11.77
2023-01-29T03:08:45.782Z,11.13
2023-01-29T03:14:08.171Z,12.25
2023-01-29T03:19:17.393Z,11.00
2023-01-29T03:24:50.989Z,10.90
2023-01-29T03:30:13.860Z,12.50
2023-01-29T03:35:37.983Z,11.07
2023-01-29T03:40:47.181Z,11.45
2023-01-29T03:46:00.314Z,12.63
2023-01-29T03:51:17.460Z,11.40
2023-01-29T03:56:27.950Z,11.45
2023-01-29T04:01:39.647Z,12.70
2023-01-29T04:06:45.487Z,11.20
2023-01-29T04:11:59.235Z,11.23
2023-01-29T04:17:06.037Z,11.57
2023-01-29T04:27:18.125Z,10.17
2023-01-29T04:32:27.943Z,11.05
2023-01-29T04:37:30.721Z,11.10
2023-01-29T04:42:41.971Z,11.25
2023-01-29T04:47:56.698Z,10.93
2023-01-29T04:52:59.416Z,11.52
2023-01-29T04:58:10.541Z,12.65
2023-01-29T05:03:14.235Z,13.43
2023-01-29T05:08:19.459Z,13.35
2023-01-29T05:13:22.600Z,13.73
2023-01-29T05:18:25.403Z,14.65
2023-01-29T05:23:28.123Z,13.88
2023-01-29T05:28:31.049Z,13.60
2023-01-29T05:33:33.523Z,14.38
2023-01-29T05:38:36.224Z,14.80
2023-01-29T05:43:38.723Z,15.75
2023-01-29T05:48:41.406Z,16.95
2023-01-29T05:53:44.213Z,15.30
2023-01-29T05:58:47.126Z,16.38
2023-01-29T06:03:49.854Z,16.08
2023-01-29T06:08:52.388Z,16.00
2023-01-29T06:13:55.124Z,17.02
2023-01-29T06:18:58.168Z,18.30
2023-01-29T06:24:00.889Z,16.63
2023-01-29T06:29:05.012Z,16.75
2023-01-29T06:34:08.238Z,17.88
2023-01-29T06:39:11.018Z,18.00
2023-01-29T06:44:13.704Z,17.33
2023-01-29T06:49:16.570Z,18.65
2023-01-29T06:54:19.274Z,19.70
2023-01-29T06:59:21.997Z,22.52
2023-01-29T07:04:24.990Z,18.90
2023-01-29T07:09:27.877Z,19.30
2023-01-29T07:14:30.620Z,17.50
2023-01-29T07:19:33.227Z,17.85
2023-01-29T07:24:35.943Z,19.63
2023-01-29T07:29:38.619Z,18.73
2023-01-29T07:34:41.449Z,20.48
2023-01-29T07:39:43.929Z,21.30
2023-01-29T07:44:46.571Z,18.55
2023-01-29T07:49:49.049Z,20.17
2023-01-29T07:54:51.838Z,19.23
2023-01-29T07:59:54.337Z,20.08
2023-01-29T08:04:56.795Z,18.95
2023-01-29T08:09:59.488Z,17.85
2023-01-29T08:15:02.249Z,18.73
2023-01-29T08:20:05.733Z,20.10
2023-01-29T08:25:08.886Z,19.90
2023-01-29T08:30:12.096Z,17.88
2023-01-29T08:35:15.278Z,19.55
2023-01-29T08:40:18.371Z,18.10
2023-01-29T08:45:21.154Z,18.42
2023-01-29T08:50:25.962Z,18.95
2023-01-29T08:55:33.008Z,17.95
2023-01-29T09:00:35.982Z,17.13
2023-01-29T09:05:39.165Z,18.63
2023-01-29T09:10:42.275Z,15.80
2023-01-29T09:15:45.022Z,16.50
2023-01-29T09:20:51.100Z,17.08
2023-01-29T09:25:53.913Z,17.20
2023-01-29T09:30:57.148Z,16.70
2023-01-29T09:36:00.103Z,17.83
2023-01-29T09:41:17.533Z,17.65
2023-01-29T09:46:23.016Z,17.30
2023-01-29T09:51:28.524Z,17.13
2023-01-29T09:56:31.613Z,15.80
2023-01-29T10:01:45.745Z,16.50
2023-01-29T10:07:04.877Z,16.02
2023-01-29T10:12:07.678Z,16.77
2023-01-29T10:17:22.545Z,15.43
2023-01-29T10:22:43.827Z,14.93
2023-01-29T10:27:52.535Z,14.45
2023-01-29T10:32:56.542Z,20.90
2023-01-29T10:38:02.717Z,14.88
2023-01-29T10:43:19.246Z,12.88
2023-01-29T10:48:30.806Z,14.35
2023-01-29T10:53:33.394Z,12.75
2023-01-29T10:58:36.421Z,13.48
2023-01-29T11:03:39.542Z,12.85
2023-01-29T11:08:45.263Z,11.93
2023-01-29T11:13:55.174Z,11.55
2023-01-29T11:18:59.855Z,12.52
2023-01-29T11:24:08.966Z,12.40
2023-01-29T11:29:27.688Z,11.68
2023-01-29T11:34:34.031Z,11.82
2023-01-29T11:39:43.423Z,11.52
2023-01-29T11:44:46.297Z,10.48
2023-01-29T11:49:50.504Z,11.18
2023-01-29T11:54:55.795Z,10.70
2023-01-29T12:00:01.571Z,10.73
2023-01-29T12:05:16.252Z,10.93
2023-01-29T12:10:48.483Z,10.07
2023-01-29T12:16:05.179Z,10.00
2023-01-29T12:21:13.604Z,9.75
2023-01-29T12:26:25.805Z,10.43
2023-01-29T12:31:34.511Z,10.97
2023-01-29T12:36:53.306Z,9.88
2023-01-29T12:41:56.362Z,9.90
2023-01-29T12:47:01.425Z,10.90
2023-01-29T12:52:07.513Z,9.73
2023-01-29T12:57:24.847Z,11.07
2023-01-29T13:02:50.304Z,11.00
2023-01-29T13:07:57.760Z,10.18
2023-01-29T13:13:23.792Z,10.32
2023-01-29T13:18:32.435Z,10.05
2023-01-29T13:23:37.252Z,10.02
2023-01-29T13:28:40.262Z,10.40
2023-01-29T13:33:43.675Z,9.23
2023-01-29T13:38:46.562Z,9.80
2023-01-29T13:43:50.255Z,10.20
2023-01-29T13:48:55.283Z,10.68
2023-01-29T13:54:01.208Z,10.07
2023-01-29T13:59:05.779Z,9.25
2023-01-29T14:04:27.379Z,11.43
2023-01-29T14:09:39.106Z,9.93
2023-01-29T14:15:00.073Z,10.93
2023-01-29T14:20:16.512Z,10.50
2023-01-29T14:25:23.656Z,11.60
2023-01-29T14:30:27.906Z,12.13
2023-01-29T14:35:33.943Z,12.38
2023-01-29T14:40:37.587Z,12.30
2023-01-29T14:45:44.958Z,12.35
2023-01-29T14:50:51.763Z,12.77
2023-01-29T14:56:03.910Z,13.57
2023-01-29T15:01:14.377Z,12.87
2023-01-29T15:06:19.268Z,13.52
2023-01-29T15:11:35.749Z,14.45
2023-01-29T15:16:41.288Z,14.40
2023-01-29T15:22:04.937Z,14.18
2023-01-29T15:27:11.771Z,14.45
2023-01-29T15:32:27.323Z,14.60
2023-01-29T15:37:31.842Z,15.23
2023-01-29T15:42:47.033Z,15.20
2023-01-29T15:47:50.231Z,13.95
2023-01-29T15:52:54.547Z,14.32
2023-01-29T15:57:57.913Z,15.15
2023-01-29T16:03:01.794Z,14.93
2023-01-29T16:08:05.299Z,15.82
2023-01-29T16:13:20.947Z,15.15
2023-01-29T16:18:25.180Z,15.35
2023-01-29T16:23:33.479Z,14.75
2023-01-29T16:28:43.356Z,14.02
2023-01-29T16:33:46.513Z,14.10
2023-01-29T16:38:50.847Z,13.88
2023-01-29T16:43:54.847Z,13.50
2023-01-29T16:48:57.459Z,14.10
2023-01-29T16:54:01.256Z,16.17
2023-01-29T16:59:05.018Z,13.98
2023-01-29T17:04:14.114Z,14.80
2023-01-29T17:09:20.761Z,15.23
2023-01-29T17:14:24.400Z,16.67
2023-01-29T17:19:27.183Z,13.82
2023-01-29T17:24:29.972Z,14.35
2023-01-29T17:29:35.281Z,13.57
2023-01-29T17:34:38.160Z,15.02
2023-01-29T17:39:41.067Z,14.20
2023-01-29T17:44:43.782Z,13.88
2023-01-29T17:49:48.002Z,14.10
2023-01-29T17:54:50.956Z,14.05
2023-01-29T17:59:53.939Z,14.07
2023-01-29T18:04:56.525Z,15.07
2023-01-29T18:09:59.063Z,13.75
2023-01-29T18:15:01.922Z,13.70
2023-01-29T18:20:12.666Z,14.50
2023-01-29T18:25:15.882Z,11.48
2023-01-29T18:30:18.917Z,13.02
2023-01-29T18:35:21.651Z,11.88
2023-01-29T18:40:24.359Z,11.70
2023-01-29T18:45:28.334Z,11.90
2023-01-29T18:50:31.034Z,10.68
2023-01-29T18:55:34.081Z,12.90
2023-01-29T19:00:36.718Z,12.30
2023-01-29T19:05:39.452Z,10.80
2023-01-29T19:10:42.134Z,11.38
2023-01-29T19:15:45.012Z,11.10
2023-01-29T19:20:47.946Z,11.10
2023-01-29T19:25:50.943Z,11.20
2023-01-29T19:30:56.744Z,12.23
2023-01-29T19:36:00.187Z,13.25
2023-01-29T19:41:03.117Z,10.40
2023-01-29T19:46:05.966Z,11.93
2023-01-29T19:51:09.926Z,11.27
2023-01-29T19:56:16.286Z,12.50
2023-01-29T20:01:20.357Z,11.63
2023-01-29T20:06:25.320Z,10.57
2023-01-29T20:11:27.914Z,10.43
2023-01-29T20:16:30.811Z,11.27
2023-01-29T20:21:33.989Z,10.10
2023-01-29T20:26:37.256Z,10.35
2023-01-29T20:31:40.214Z,11.25
2023-01-29T20:36:43.244Z,10.50
2023-01-29T20:41:46.063Z,10.48
2023-01-29T20:46:48.935Z,10.10
2023-01-29T20:51:51.765Z,9.40
2023-01-29T20:56:54.772Z,10.35
2023-01-29T21:01:59.303Z,9.52
2023-01-29T21:07:02.273Z,10.07
2023-01-29T21:12:07.968Z,9.77
2023-01-29T21:17:10.767Z,10.35
2023-01-29T21:22:13.520Z,10.68
2023-01-29T21:27:16.265Z,9.10
2023-01-29T21:32:19.252Z,8.63
2023-01-29T21:37:22.057Z,9.07
2023-01-29T21:42:43.384Z,9.05
2023-01-29T21:47:46.034Z,9.77
2023-01-29T21:52:49.091Z,10.60
2023-01-29T21:57:52.014Z,8.60
2023-01-29T22:02:55.054Z,9.68
2023-01-29T22:07:58.101Z,9.05
2023-01-29T22:13:02.412Z,9.73
2023-01-29T22:18:04.968Z,10.13
2023-01-29T22:23:08.579Z,9.15
2023-01-29T22:28:11.276Z,9.48
2023-01-29T22:33:13.897Z,9.65
2023-01-29T22:38:16.600Z,9.30
2023-01-29T22:48:43.172Z,10.20
2023-01-29T22:53:50.496Z,9.30
2023-01-29T22:58:54.726Z,10.25
2023-01-29T23:03:57.612Z,9.35
2023-01-29T23:09:00.263Z,8.75
2023-01-29T23:14:03.163Z,9.50
2023-01-29T23:19:10.428Z,9.27
2023-01-29T23:24:13.775Z,8.10
2023-01-29T23:29:16.857Z,7.70
2023-01-29T23:34:20.536Z,8.52
2023-01-29T23:39:23.687Z,9.38
2023-01-29T23:44:29.265Z,8.82
2023-01-29T23:49:31.973Z,9.15
2023-01-29T23:54:34.718Z,9.75
2023-01-29T23:59:37.318Z,8.75
